Time;durP1;ratioP1;P1;durP2;ratioP2;P2;SDS_P1;SDS_P2;PMS_P1;PMS_P2;Temp;Humidity;BMP_temperature;BMP_pressure;BME280_temperature;BME280_humidity;BME280_pressure;Samples;Min_cycle;Max_cycle;Signal;HPM_P1;HPM_P2
2022/04/18 00:01:57;;;;;;;0.70;0.70;;;;;;;5.75;100.00;97924.53;4950272;29;20181;-65
2022/04/18 00:04:22;;;;;;;0.88;0.88;;;;;;;5.75;100.00;97930.50;4946713;28;20499;-65
2022/04/18 00:06:48;;;;;;;0.80;0.80;;;;;;;5.73;100.00;97918.69;4939118;29;20591;-65
2022/04/18 00:09:15;;;;;;;0.60;0.60;;;;;;;5.73;100.00;97910.97;4940733;29;20185;-65
2022/04/18 00:11:41;;;;;;;0.90;0.90;;;;;;;5.87;100.00;97914.44;4948867;29;20630;-65
2022/04/18 00:14:06;;;;;;;0.80;0.80;;;;;;;5.96;100.00;97913.09;4949898;29;20239;-65
2022/04/18 00:16:32;;;;;;;0.93;0.93;;;;;;;5.89;100.00;97916.91;4949675;29;20962;-65
2022/04/18 00:18:58;;;;;;;0.93;0.93;;;;;;;5.79;100.00;97911.47;4949988;29;20216;-65
2022/04/18 00:21:24;;;;;;;0.70;0.70;;;;;;;5.80;100.00;97904.59;4949865;29;20299;-65
2022/04/18 00:23:49;;;;;;;0.80;0.80;;;;;;;5.75;100.00;97911.69;4949756;29;20181;-65
2022/04/18 00:26:15;;;;;;;1.00;1.00;;;;;;;5.30;100.00;97916.88;4942333;29;20247;-65
2022/04/18 00:28:40;;;;;;;0.88;0.88;;;;;;;4.78;100.00;97882.97;4939504;29;20189;-65
2022/04/18 00:31:06;;;;;;;1.08;0.98;;;;;;;4.91;100.00;97908.78;4942515;29;20200;-65
2022/04/18 00:33:32;;;;;;;0.95;0.95;;;;;;;5.05;100.00;97901.16;4949688;29;20281;-65
2022/04/18 00:35:57;;;;;;;0.95;0.95;;;;;;;5.21;100.00;97901.97;4949812;29;21039;-65
2022/04/18 00:38:23;;;;;;;0.90;0.90;;;;;;;5.13;100.00;97904.97;4949203;28;20181;-65
2022/04/18 00:40:49;;;;;;;1.10;1.10;;;;;;;5.26;100.00;97890.53;4949249;29;20193;-65
2022/04/18 00:43:15;;;;;;;1.00;1.00;;;;;;;5.00;100.00;97893.72;4949497;29;20189;-65
2022/04/18 00:45:40;;;;;;;1.00;1.00;;;;;;;4.87;100.00;97890.19;4949527;29;20719;-65
2022/04/18 00:48:06;;;;;;;1.20;1.20;;;;;;;5.10;100.00;97888.91;4938599;29;20499;-65
2022/04/18 00:50:34;;;;;;;1.00;1.00;;;;;;;5.09;100.00;97893.25;4939344;29;20601;-66
2022/04/18 00:53:00;;;;;;;1.20;1.20;;;;;;;5.16;100.00;97891.16;4945015;29;20196;-66
2022/04/18 00:55:27;;;;;;;1.10;1.10;;;;;;;5.01;100.00;97887.69;4949282;29;20197;-65
2022/04/18 00:57:54;;;;;;;1.15;1.15;;;;;;;4.83;100.00;97881.00;4949283;29;20236;-65
2022/04/18 01:00:21;;;;;;;0.98;0.98;;;;;;;4.89;100.00;97883.22;4949016;29;20220;-66
2022/04/18 01:02:46;;;;;;;1.10;1.10;;;;;;;4.81;100.00;97877.72;4949038;28;20659;-65
2022/04/18 01:05:12;;;;;;;1.42;1.40;;;;;;;4.91;100.00;97873.72;4949050;29;20235;-65
2022/04/18 01:07:38;;;;;;;1.33;1.23;;;;;;;4.86;100.00;97868.03;4945655;29;20815;-65
2022/04/18 01:10:05;;;;;;;1.27;1.27;;;;;;;4.99;100.00;97863.06;4937793;29;20193;-65
2022/04/18 01:12:30;;;;;;;1.10;1.10;;;;;;;4.82;100.00;97863.13;4939895;29;20196;-65
2022/04/18 01:14:56;;;;;;;1.10;1.10;;;;;;;4.74;100.00;97855.91;4947788;29;20189;-65
2022/04/18 01:17:21;;;;;;;1.10;1.10;;;;;;;4.78;100.00;97854.78;4948862;29;20192;-65
2022/04/18 01:19:46;;;;;;;1.52;1.42;;;;;;;4.86;100.00;97851.81;4948907;29;20189;-65
2022/04/18 01:22:13;;;;;;;1.70;1.60;;;;;;;4.83;100.00;97850.25;4920544;29;20201;-67
2022/04/18 01:30:09;;;;;;;1.70;1.60;;;;;;;5.20;100.00;97839.59;4938434;29;20773;-65
2022/04/18 01:32:35;;;;;;;1.00;1.00;;;;;;;5.05;100.00;97840.47;4938151;29;20188;-65
2022/04/18 01:35:00;;;;;;;1.00;1.00;;;;;;;4.99;100.00;97840.81;4944616;29;20197;-65
2022/04/18 01:37:26;;;;;;;2.65;1.73;;;;;;;4.87;100.00;97835.53;4948791;29;20196;-65
2022/04/18 01:39:51;;;;;;;1.02;1.02;;;;;;;4.66;100.00;97834.97;4948754;29;20193;-66
2022/04/18 01:42:16;;;;;;;1.10;1.10;;;;;;;4.78;100.00;97829.16;4948700;29;20192;-66
2022/04/18 01:44:42;;;;;;;1.10;1.10;;;;;;;4.82;100.00;97828.09;4948654;29;20635;-66
2022/04/18 01:47:08;;;;;;;1.00;1.00;;;;;;;4.82;100.00;97835.78;4948553;29;20205;-66
2022/04/18 01:49:33;;;;;;;1.25;1.15;;;;;;;4.64;100.00;97808.63;4945177;29;20193;-64
2022/04/18 01:51:59;;;;;;;1.10;1.10;;;;;;;4.75;100.00;97825.94;4941159;28;20189;-66
2022/04/18 01:54:24;;;;;;;1.20;1.20;;;;;;;4.65;100.00;97825.63;4943521;29;20195;-66
2022/04/18 01:56:50;;;;;;;1.00;1.00;;;;;;;4.61;100.00;97821.56;4950968;29;20199;-65
2022/04/18 01:59:15;;;;;;;0.90;0.90;;;;;;;4.72;100.00;97821.81;4952487;29;20184;-66
2022/04/18 02:01:41;;;;;;;2.80;1.00;;;;;;;4.75;100.00;97825.94;4952479;29;20655;-65
2022/04/18 02:04:07;;;;;;;0.98;0.73;;;;;;;4.90;100.00;97828.50;4952016;28;20235;-65
2022/04/18 02:06:33;;;;;;;1.08;1.08;;;;;;;4.99;100.00;97819.47;4952047;29;20231;-65
2022/04/18 02:08:58;;;;;;;1.10;1.10;;;;;;;4.98;100.00;97817.81;4951882;29;20185;-66
2022/04/18 02:11:24;;;;;;;1.10;1.10;;;;;;;5.04;100.00;97823.44;4945081;29;20197;-65
2022/04/18 02:13:49;;;;;;;1.05;1.00;;;;;;;5.03;100.00;97818.41;4942118;29;20181;-66
2022/04/18 02:16:15;;;;;;;1.10;1.10;;;;;;;5.02;100.00;97824.44;4944693;29;20188;-66
2022/04/18 02:18:40;;;;;;;0.90;0.90;;;;;;;5.04;100.00;97817.47;4952092;29;20239;-67
2022/04/18 02:21:07;;;;;;;1.20;1.20;;;;;;;4.98;100.00;97818.66;4952047;29;20185;-65
2022/04/18 02:23:32;;;;;;;1.20;1.20;;;;;;;5.01;100.00;97817.66;4952067;29;20201;-65
2022/04/18 02:25:58;;;;;;;1.02;1.02;;;;;;;5.08;100.00;97814.66;4951947;29;20238;-65
2022/04/18 02:28:23;;;;;;;0.98;0.98;;;;;;;5.11;100.00;97814.50;4952212;29;20255;-65
2022/04/18 02:30:49;;;;;;;0.88;0.88;;;;;;;5.11;100.00;97816.22;4951990;29;20639;-65
2022/04/18 02:33:14;;;;;;;1.40;1.30;;;;;;;5.13;100.00;97822.91;4941403;29;20240;-66
2022/04/18 02:35:39;;;;;;;1.25;1.25;;;;;;;5.17;100.00;97813.31;4942152;29;20689;-66
2022/04/18 02:38:05;;;;;;;1.80;1.70;;;;;;;5.27;100.00;97817.84;4947269;29;20189;-66
2022/04/18 02:40:30;;;;;;;1.65;1.55;;;;;;;5.29;100.00;97804.91;4951710;29;20197;-66
2022/04/18 02:42:56;;;;;;;0.95;0.95;;;;;;;5.46;100.00;97804.78;4951830;29;20189;-66
2022/04/18 02:45:21;;;;;;;1.17;1.13;;;;;;;5.59;100.00;97806.56;4951637;29;20279;-66
2022/04/18 02:47:47;;;;;;;1.70;1.60;;;;;;;5.60;100.00;97803.06;4951924;29;20702;-66
2022/04/18 02:50:13;;;;;;;1.33;1.15;;;;;;;5.72;100.00;97804.09;4951479;29;20280;-65
2022/04/18 02:52:39;;;;;;;1.00;1.00;;;;;;;5.89;100.00;97804.78;4948849;29;20276;-65
2022/04/18 02:55:05;;;;;;;1.60;0.95;;;;;;;6.04;100.00;97801.31;4940258;29;20414;-67
2022/04/18 02:57:31;;;;;;;0.90;0.90;;;;;;;5.99;100.00;97805.88;4942034;29;20181;-66
2022/04/18 02:59:56;;;;;;;1.00;1.00;;;;;;;6.04;100.00;97798.75;4949640;29;20204;-66
2022/04/18 03:02:22;;;;;;;0.82;0.82;;;;;;;6.03;100.00;97802.22;4950303;28;20850;-66
2022/04/18 03:04:47;;;;;;;1.13;1.13;;;;;;;6.16;100.00;97808.28;4951395;28;20311;-65
2022/04/18 03:07:12;;;;;;;1.00;1.00;;;;;;;6.18;100.00;97811.56;4934052;29;20207;-65
2022/04/18 03:09:38;;;;;;;0.90;0.90;;;;;;;6.26;100.00;97816.25;4951152;29;20204;-66
2022/04/18 03:12:06;;;;;;;1.02;1.00;;;;;;;6.31;100.00;97817.63;4951366;29;20640;-65
2022/04/18 03:14:32;;;;;;;1.30;1.30;;;;;;;6.24;100.00;97815.50;4944258;29;20220;-65
2022/04/18 03:16:58;;;;;;;1.00;1.00;;;;;;;6.39;100.00;97825.69;4923281;29;20192;-65
2022/04/18 03:19:24;;;;;;;1.20;1.20;;;;;;;6.52;100.00;97824.00;4942883;29;20189;-65
2022/04/18 03:21:50;;;;;;;1.30;1.30;;;;;;;6.45;100.00;97819.31;4951163;29;20188;-66
2022/04/18 03:24:15;;;;;;;1.17;1.17;;;;;;;6.36;100.00;97825.03;4951342;29;20189;-65
2022/04/18 03:26:40;;;;;;;1.58;1.48;;;;;;;6.42;100.00;97824.66;4950867;29;20746;-66
2022/04/18 03:29:06;;;;;;;1.67;1.58;;;;;;;6.40;100.00;97813.66;4950918;29;20188;-66
2022/04/18 03:31:31;;;;;;;1.48;1.48;;;;;;;6.32;100.00;97816.69;4951080;29;20197;-67
2022/04/18 03:33:57;;;;;;;1.20;1.20;;;;;;;5.68;100.00;97815.47;4950773;29;20675;-65
2022/04/18 03:41:50;;;;;;;2.13;1.40;;;;;;;5.34;100.00;97805.50;4947403;29;20587;-65
2022/04/18 03:44:15;;;;;;;1.98;1.88;;;;;;;5.29;100.00;97803.19;4950542;29;20185;-65
2022/04/18 03:46:41;;;;;;;2.80;2.60;;;;;;;5.36;100.00;97801.13;4950538;29;20294;-64
2022/04/18 03:49:06;;;;;;;3.05;2.72;;;;;;;5.33;100.00;97799.56;4950508;29;20789;-66
2022/04/18 03:51:31;;;;;;;1.50;1.40;;;;;;;5.04;100.00;97802.94;4950493;29;20228;-66
2022/04/18 03:53:57;;;;;;;1.70;1.60;;;;;;;4.94;100.00;97799.22;4950600;29;20192;-66
2022/04/18 03:56:22;;;;;;;1.35;1.35;;;;;;;5.05;100.00;97806.31;4945435;29;20192;-64
2022/04/18 03:58:47;;;;;;;1.30;1.30;;;;;;;5.01;100.00;97808.22;4939456;29;20195;-66
2022/04/18 04:01:13;;;;;;;1.70;1.60;;;;;;;5.07;100.00;97805.31;4941355;29;20193;-66
2022/04/18 04:03:38;;;;;;;1.50;1.40;;;;;;;5.13;100.00;97811.84;4949581;28;20217;-64
2022/04/18 04:06:04;;;;;;;1.30;1.30;;;;;;;5.08;100.00;97811.28;4950096;29;20347;-66
2022/04/18 04:08:29;;;;;;;1.33;1.33;;;;;;;4.95;100.00;97808.56;4950028;29;20585;-65
2022/04/18 04:10:54;;;;;;;1.83;1.73;;;;;;;4.76;100.00;97794.28;4950076;29;20802;-66
2022/04/18 04:13:20;;;;;;;3.47;3.17;;;;;;;4.66;100.00;97799.09;4949902;28;20220;-64
2022/04/18 04:15:46;;;;;;;3.70;3.40;;;;;;;4.74;100.00;97796.97;4949867;29;20698;-66
2022/04/18 04:18:11;;;;;;;1.45;1.45;;;;;;;4.71;100.00;97799.69;4940655;29;20192;-64
2022/04/18 04:20:37;;;;;;;1.38;1.30;;;;;;;4.69;100.00;97805.78;4939857;29;20598;-66
2022/04/18 04:23:03;;;;;;;1.50;1.40;;;;;;;4.87;100.00;97792.81;4944472;29;20201;-64
2022/04/18 04:25:29;;;;;;;2.95;2.50;;;;;;;5.06;100.00;97808.78;4949626;29;20185;-66
2022/04/18 04:27:54;;;;;;;1.50;1.40;;;;;;;5.07;100.00;97807.88;4949733;29;20185;-66
2022/04/18 04:30:20;;;;;;;2.08;1.90;;;;;;;4.99;100.00;97814.34;4949798;29;20574;-65
2022/04/18 04:32:45;;;;;;;2.33;2.22;;;;;;;5.09;100.00;97806.06;4949323;29;20667;-66
2022/04/18 04:35:11;;;;;;;1.90;1.80;;;;;;;5.00;100.00;97800.63;4949564;29;20254;-66
2022/04/18 04:37:36;;;;;;;2.90;2.67;;;;;;;5.01;100.00;97797.97;4948976;29;20239;-66
2022/04/18 04:40:03;;;;;;;2.20;2.10;;;;;;;5.09;100.00;97806.06;4937751;29;20662;-66
2022/04/18 04:42:28;;;;;;;1.10;1.10;;;;;;;5.09;100.00;97812.94;4939919;29;20192;-65
2022/04/18 04:44:54;;;;;;;1.48;1.40;;;;;;;5.08;100.00;97811.28;4946656;29;20231;-65
2022/04/18 04:47:20;;;;;;;1.40;1.40;;;;;;;4.89;100.00;97813.22;4949326;29;20706;-65
2022/04/18 04:49:45;;;;;;;1.52;1.52;;;;;;;4.75;100.00;97811.41;4947788;29;20685;-67
2022/04/18 04:52:11;;;;;;;2.30;2.20;;;;;;;4.84;100.00;97810.91;4948411;29;20196;-66
2022/04/18 04:54:36;;;;;;;2.45;2.25;;;;;;;4.88;100.00;97820.06;4949038;29;20220;-67
2022/04/18 04:57:02;;;;;;;2.70;2.50;;;;;;;4.90;100.00;97815.69;4949360;29;20229;-66
2022/04/18 04:59:27;;;;;;;3.70;3.40;;;;;;;4.87;100.00;97821.00;4943656;29;20220;-65
2022/04/18 05:01:53;;;;;;;3.55;3.25;;;;;;;4.93;100.00;97805.28;4938513;29;20708;-66
2022/04/18 05:04:18;;;;;;;5.15;3.60;;;;;;;5.04;100.00;97813.19;4940161;28;20332;-65
2022/04/18 05:06:44;;;;;;;2.90;2.70;;;;;;;5.04;100.00;97815.75;4948982;29;20205;-66
2022/04/18 05:09:10;;;;;;;1.25;1.25;;;;;;;5.15;100.00;97821.13;4949025;29;20181;-64
2022/04/18 05:11:36;;;;;;;1.70;1.60;;;;;;;5.11;100.00;97824.75;4949287;29;20571;-66
2022/04/18 05:14:02;;;;;;;1.23;1.23;;;;;;;5.13;100.00;97822.91;4948980;29;20181;-65
2022/04/18 05:16:30;;;;;;;1.50;1.50;;;;;;;5.17;100.00;97826.13;4949031;29;20189;-66
2022/04/18 05:18:55;;;;;;;1.50;1.50;;;;;;;5.27;100.00;97830.69;4948930;29;20663;-65
2022/04/18 05:21:21;;;;;;;3.25;1.98;;;;;;;5.17;100.00;97834.66;4939362;29;20193;-67
2022/04/18 05:23:48;;;;;;;1.58;1.38;;;;;;;5.19;100.00;97837.97;4938683;29;20189;-66
2022/04/18 05:26:13;;;;;;;2.15;2.05;;;;;;;5.34;100.00;97826.84;4943031;28;20211;-65
2022/04/18 05:28:39;;;;;;;1.95;1.85;;;;;;;5.36;100.00;97826.75;4949054;29;20189;-66
2022/04/18 05:31:04;;;;;;;1.42;1.08;;;;;;;5.37;100.00;97826.66;4949016;29;20678;-66
2022/04/18 05:33:30;;;;;;;3.97;3.67;;;;;;;5.43;100.00;97817.81;4948868;29;20557;-66
2022/04/18 05:35:55;;;;;;;3.85;3.53;;;;;;;5.11;100.00;97824.75;4948745;29;20181;-66
2022/04/18 05:38:21;;;;;;;3.33;3.10;;;;;;;5.09;100.00;97825.75;4948624;29;20181;-65
2022/04/18 05:40:46;;;;;;;2.30;2.20;;;;;;;5.21;100.00;97830.19;4947316;29;20220;-66
2022/04/18 05:43:12;;;;;;;3.00;2.80;;;;;;;5.08;100.00;97834.34;4936791;29;20181;-65
2022/04/18 05:45:38;;;;;;;5.15;3.72;;;;;;;5.07;100.00;97833.50;4938750;29;20585;-65
2022/04/18 05:48:04;;;;;;;4.95;3.60;;;;;;;5.16;100.00;97827.03;4945933;29;20189;-65
2022/04/18 05:50:29;;;;;;;1.67;1.58;;;;;;;5.12;100.00;97835.84;4948713;29;20209;-65
2022/04/18 05:52:54;;;;;;;1.38;1.38;;;;;;;5.12;100.00;97836.66;4948416;29;20650;-65
2022/04/18 05:55:23;;;;;;;1.40;1.40;;;;;;;5.32;100.00;97846.63;4948535;29;20181;-65
2022/04/18 05:57:52;;;;;;;1.45;1.40;;;;;;;5.41;100.00;97843.53;4948490;29;20192;-65
2022/04/18 06:00:18;;;;;;;1.30;1.30;;;;;;;5.54;100.00;97844.47;4948462;29;20718;-65
2022/04/18 06:02:43;;;;;;;2.13;1.85;;;;;;;5.62;100.00;97844.03;4941803;28;20675;-65
2022/04/18 06:05:09;;;;;;;2.80;1.48;;;;;;;5.79;100.00;97849.88;4937700;29;20219;-67
2022/04/18 06:07:34;;;;;;;1.13;1.13;;;;;;;5.93;100.00;97842.19;4940313;29;20359;-65
2022/04/18 06:10:02;;;;;;;1.88;1.77;;;;;;;6.13;100.00;97853.84;4948412;29;20188;-65
2022/04/18 06:12:29;;;;;;;10.18;6.28;;;;;;;6.27;100.00;97854.69;4948519;29;20193;-65
2022/04/18 06:14:55;;;;;;;6.63;4.97;;;;;;;6.32;100.00;97864.66;4948184;29;20208;-67
2022/04/18 06:17:20;;;;;;;2.30;2.20;;;;;;;6.47;100.00;97864.56;4948305;29;20185;-65
2022/04/18 06:19:46;;;;;;;1.92;1.83;;;;;;;6.51;100.00;97865.19;4948344;29;20185;-67
2022/04/18 06:22:11;;;;;;;1.67;1.58;;;;;;;6.52;100.00;97861.75;4948518;29;20224;-67
2022/04/18 06:24:37;;;;;;;2.13;2.03;;;;;;;6.34;100.00;97866.22;4937623;29;20185;-65
2022/04/18 06:27:02;;;;;;;11.27;10.05;;;;;;;6.40;100.00;97868.44;4938534;29;20221;-67
2022/04/18 06:29:28;;;;;;;10.93;9.27;;;;;;;6.42;100.00;97876.88;4943876;29;20248;-67
2022/04/18 06:31:53;;;;;;;2.13;1.98;;;;;;;6.35;100.00;97865.31;4948234;29;20726;-65
2022/04/18 06:34:20;;;;;;;1.40;1.40;;;;;;;6.52;100.00;97883.09;4948155;29;20189;-65
2022/04/18 06:36:45;;;;;;;2.60;1.83;;;;;;;6.57;100.00;97880.25;4950035;28;20193;-67
2022/04/18 06:39:10;;;;;;;2.42;2.22;;;;;;;6.75;100.00;97879.97;4952032;29;20200;-66
2022/04/18 06:41:36;;;;;;;3.17;2.88;;;;;;;6.48;100.00;97873.91;4951825;29;20185;-65
2022/04/18 06:44:01;;;;;;;2.20;2.10;;;;;;;6.27;100.00;97884.66;4949028;29;20185;-65
2022/04/18 06:46:27;;;;;;;3.17;2.75;;;;;;;6.18;100.00;97885.22;4940114;29;20268;-65
2022/04/18 06:48:53;;;;;;;2.40;2.28;;;;;;;5.95;100.00;97881.44;4941893;29;20193;-65
2022/04/18 06:51:18;;;;;;;1.55;1.40;;;;;;;5.71;100.00;97877.69;4949819;29;20197;-65
2022/04/18 06:53:44;;;;;;;1.08;1.08;;;;;;;5.62;100.00;97882.53;4951681;29;20224;-65
2022/04/18 06:58:53;;;;;;;1.20;1.20;;;;;;;5.60;100.00;97853.56;4951559;29;20312;-65
2022/04/18 07:01:59;;;;;;;4.53;2.22;;;;;;;5.60;100.00;97882.59;4951539;29;20184;-65
2022/04/18 07:04:26;;;;;;;4.10;3.58;;;;;;;5.57;100.00;97881.97;4950846;28;20694;-66
2022/04/18 07:06:51;;;;;;;5.38;3.70;;;;;;;5.66;100.00;97882.25;4939569;29;20643;-66
2022/04/18 07:09:17;;;;;;;4.10;3.70;;;;;;;5.55;100.00;97887.16;4941538;29;20195;-65
2022/04/18 07:11:45;;;;;;;3.47;3.17;;;;;;;5.71;100.00;97893.09;4947753;29;20200;-66
2022/04/18 07:14:11;;;;;;;3.97;3.53;;;;;;;5.73;100.00;97888.72;4951090;29;20193;-65
2022/04/18 07:16:36;;;;;;;4.15;3.75;;;;;;;5.88;100.00;97895.53;4951153;29;20204;-65
2022/04/18 07:19:02;;;;;;;2.65;2.45;;;;;;;5.96;100.00;97898.50;4951277;29;20582;-65
2022/04/18 07:21:27;;;;;;;1.90;1.80;;;;;;;5.95;100.00;97899.41;4950756;29;20260;-65
2022/04/18 07:23:53;;;;;;;2.00;1.90;;;;;;;5.86;100.00;97891.41;4937309;29;20275;-65
2022/04/18 07:26:21;;;;;;;1.00;1.00;;;;;;;5.51;100.00;97901.09;4946672;29;20857;-65
2022/04/18 07:28:47;;;;;;;0.98;0.98;;;;;;;5.34;100.00;97897.81;4940001;29;20197;-66
2022/04/18 07:31:13;;;;;;;1.70;1.60;;;;;;;5.53;100.00;97899.28;4941893;29;20204;-65
2022/04/18 07:33:38;;;;;;;1.73;1.63;;;;;;;5.66;100.00;97899.41;4950375;29;20188;-66
2022/04/18 07:36:04;;;;;;;1.90;1.80;;;;;;;5.63;100.00;97900.41;4950758;29;20299;-66
2022/04/18 07:41:15;;;;;;;3.47;2.67;;;;;;;5.72;100.00;97902.44;4951062;29;20188;-65
2022/04/18 07:43:41;;;;;;;2.67;2.47;;;;;;;5.95;100.00;97904.53;4950651;29;20216;-65
2022/04/18 07:46:07;;;;;;;1.85;1.30;;;;;;;6.02;100.00;97908.44;4950560;29;20212;-65
2022/04/18 07:48:33;;;;;;;1.20;1.10;;;;;;;5.95;100.00;97906.31;4940418;28;20275;-66
2022/04/18 07:53:43;;;;;;;1.75;1.65;;;;;;;6.03;100.00;97916.94;4946580;29;20587;-65
2022/04/18 07:56:08;;;;;;;10.57;8.40;;;;;;;6.22;100.00;97914.94;4950392;29;20181;-65
2022/04/18 07:58:34;;;;;;;2.28;2.17;;;;;;;6.20;100.00;97922.75;4950218;29;20651;-65
2022/04/18 08:00:59;;;;;;;1.20;1.20;;;;;;;6.36;100.00;97920.91;4950357;29;20197;-66
2022/04/18 08:03:25;;;;;;;1.20;1.20;;;;;;;6.49;100.00;97923.59;4950093;28;20204;-65
2022/04/18 08:05:50;;;;;;;1.33;1.27;;;;;;;6.72;100.00;97931.56;4950694;29;20331;-66
2022/04/18 08:08:16;;;;;;;0.93;0.93;;;;;;;6.71;100.00;97935.03;4921853;29;20208;-67
2022/04/18 08:10:41;;;;;;;1.10;1.10;;;;;;;6.83;100.00;97933.47;4938958;29;20224;-66
2022/04/18 08:13:07;;;;;;;2.83;1.80;;;;;;;6.79;100.00;97932.84;4940977;29;20220;-66
2022/04/18 08:15:33;;;;;;;3.40;2.83;;;;;;;6.89;100.00;97939.09;4948444;29;20193;-66
2022/04/18 08:17:58;;;;;;;9.15;6.15;;;;;;;6.94;100.00;97936.22;4950239;29;20262;-66
2022/04/18 08:20:24;;;;;;;37.78;13.93;;;;;;;7.05;100.00;97944.09;4949925;29;20195;-66
2022/04/18 08:22:50;;;;;;;2.95;2.28;;;;;;;7.13;100.00;97942.72;4949962;29;20196;-66
2022/04/18 08:25:15;;;;;;;2.47;2.30;;;;;;;6.97;100.00;97947.16;4949698;29;20184;-65
2022/04/18 08:27:41;;;;;;;1.45;1.45;;;;;;;6.74;100.00;97945.16;4949819;29;20205;-67
2022/04/18 08:30:07;;;;;;;1.25;1.25;;;;;;;6.91;100.00;97944.94;4942695;29;20545;-66
2022/04/18 08:32:41;;;;;;;2.28;2.17;;;;;;;6.87;100.00;97942.66;4939223;29;20193;-66
2022/04/18 08:35:08;;;;;;;3.80;3.50;;;;;;;6.96;100.00;97944.66;4943311;29;20267;-66
2022/04/18 08:37:37;;;;;;;2.83;2.63;;;;;;;7.04;100.00;97948.41;4949484;29;20193;-66
2022/04/18 08:40:05;;;;;;;1.90;1.67;;;;;;;7.19;100.00;97942.34;4949634;29;20212;-66
2022/04/18 08:42:35;;;;;;;1.77;1.67;;;;;;;7.29;100.00;97948.53;4949565;29;20689;-66
2022/04/18 08:45:04;;;;;;;3.03;2.80;;;;;;;7.35;100.00;97953.28;4949707;29;20201;-66
2022/04/18 08:52:57;;;;;;;1.30;1.30;;;;;;;7.31;100.00;97954.44;4938667;29;20649;-66
2022/04/18 08:55:23;;;;;;;0.73;0.73;;;;;;;7.29;100.00;97963.97;4940596;29;20196;-66
2022/04/18 08:57:49;;;;;;;1.13;1.13;;;;;;;7.27;100.00;97960.69;4948582;29;20185;-66
2022/04/18 09:00:14;;;;;;;1.00;1.00;;;;;;;7.13;100.00;97963.28;4948485;28;20731;-66
2022/04/18 09:02:40;;;;;;;1.00;1.00;;;;;;;7.12;100.00;97958.25;4949391;28;20201;-66
2022/04/18 09:05:11;;;;;;;2.67;2.20;;;;;;;6.89;100.00;97948.53;4949193;29;20279;-66
2022/04/18 09:07:36;;;;;;;4.10;3.50;;;;;;;6.64;100.00;97954.31;4948813;29;20264;-65
2022/04/18 09:10:02;;;;;;;2.03;1.73;;;;;;;6.77;100.00;97955.22;4949034;29;20189;-66
2022/04/18 09:12:29;;;;;;;4.18;3.10;;;;;;;6.80;100.00;97960.19;4923157;29;20197;-66
2022/04/18 09:14:55;;;;;;;2.53;2.33;;;;;;;6.85;100.00;97953.03;4938759;29;20276;-67
2022/04/18 09:17:31;;;;;;;4.68;4.38;;;;;;;6.78;100.00;97956.06;4943200;29;20292;-66
2022/04/18 09:20:11;;;;;;;2.03;1.92;;;;;;;6.88;100.00;97967.47;4948880;29;20662;-66
2022/04/18 09:22:40;;;;;;;1.65;1.55;;;;;;;6.95;100.00;97967.00;4948655;29;20196;-66
2022/04/18 09:25:20;;;;;;;1.30;1.30;;;;;;;6.90;100.00;97958.72;4948826;29;20185;-66
2022/04/18 09:27:56;;;;;;;1.65;1.58;;;;;;;6.94;100.00;97962.75;4948647;29;20292;-66
2022/04/18 09:30:24;;;;;;;1.20;1.10;;;;;;;7.02;100.00;97967.44;4948816;29;20216;-66
2022/04/18 09:33:07;;;;;;;1.65;1.55;;;;;;;7.06;100.00;97969.72;4926304;29;20480;-66
2022/04/18 09:35:34;;;;;;;1.00;1.00;;;;;;;7.18;100.00;97963.81;4938602;29;20608;-66
2022/04/18 09:38:06;;;;;;;1.10;1.10;;;;;;;7.08;100.00;97977.34;4940931;29;20235;-66
2022/04/18 09:40:32;;;;;;;1.50;1.40;;;;;;;7.01;100.00;97979.47;4948691;29;20223;-66
2022/04/18 09:42:58;;;;;;;1.35;1.35;;;;;;;6.90;100.00;97974.16;4948547;29;20184;-66
2022/04/18 09:45:24;;;;;;;1.40;1.30;;;;;;;6.84;100.00;97971.97;4948942;29;20247;-66
2022/04/18 09:48:03;;;;;;;1.90;1.70;;;;;;;6.92;100.00;97982.59;4948426;29;20216;-67
2022/04/18 09:53:22;;;;;;;1.00;1.00;;;;;;;6.66;100.00;97978.22;4946985;29;20243;-64
2022/04/18 09:55:50;;;;;;;1.60;1.50;;;;;;;6.44;100.00;97980.41;4937566;29;20185;-66
2022/04/18 09:58:16;;;;;;;1.05;1.05;;;;;;;6.59;100.00;97982.03;4939023;29;20189;-67
2022/04/18 10:00:42;;;;;;;1.20;1.20;;;;;;;6.62;100.00;97979.31;4946657;29;20248;-66
2022/04/18 10:03:08;;;;;;;7.10;4.65;;;;;;;6.53;100.00;97977.25;4945793;28;20287;-64
2022/04/18 10:05:34;;;;;;;2.47;2.28;;;;;;;6.31;100.00;97976.91;4948188;29;20232;-66
2022/04/18 10:08:03;;;;;;;2.00;1.90;;;;;;;6.12;100.00;97983.19;4948526;29;20185;-65
2022/04/18 10:10:34;;;;;;;3.53;3.22;;;;;;;6.11;100.00;97977.22;4948202;29;20200;-66
2022/04/18 10:13:00;;;;;;;3.53;3.22;;;;;;;5.70;100.00;97968.44;4952239;28;20185;-66
2022/04/18 10:15:29;;;;;;;7.35;3.83;;;;;;;5.84;100.00;97970.25;4944522;29;20740;-64
2022/04/18 10:17:56;;;;;;;2.38;2.17;;;;;;;5.86;100.00;97971.00;4941664;29;20710;-66
2022/04/18 10:20:46;;;;;;;1.10;1.10;;;;;;;5.97;100.00;97976.34;4945526;29;20280;-66
2022/04/18 10:23:50;;;;;;;1.00;1.00;;;;;;;5.94;100.00;97966.28;4952140;29;20177;-66
2022/04/18 10:26:43;;;;;;;5.20;3.80;;;;;;;6.36;100.00;97964.59;4951957;29;20618;-66
2022/04/18 10:29:20;;;;;;;2.13;1.98;;;;;;;6.38;100.00;97960.19;4951955;29;20199;-66
2022/04/18 10:31:48;;;;;;;2.10;1.52;;;;;;;6.46;100.00;97963.13;4951945;29;20587;-66
2022/04/18 10:34:14;;;;;;;0.93;0.93;;;;;;;6.71;100.00;97963.31;4952211;29;20604;-65
2022/04/18 10:36:52;;;;;;;0.73;0.73;;;;;;;7.04;100.00;97957.91;4942991;29;20197;-64
2022/04/18 10:39:19;;;;;;;1.02;1.00;;;;;;;7.07;100.00;97958.53;4941899;29;20197;-66
2022/04/18 10:41:46;;;;;;;1.85;1.75;;;;;;;7.31;100.00;97957.00;4946939;29;20192;-65
2022/04/18 10:44:18;;;;;;;1.50;1.15;;;;;;;7.51;100.00;97964.28;4951739;29;20329;-65
2022/04/18 10:46:55;;;;;;;3.38;2.67;;;;;;;7.57;100.00;97968.22;4951569;29;20216;-66
2022/04/18 10:49:23;;;;;;;3.03;1.13;;;;;;;7.67;100.00;97954.66;4951887;29;20318;-64
2022/04/18 10:51:51;;;;;;;1.60;1.30;;;;;;;7.96;100.00;97961.34;4951545;29;20196;-65
2022/04/18 10:54:23;;;;;;;1.13;1.13;;;;;;;8.06;100.00;97958.97;4951664;29;20193;-65
2022/04/18 10:56:50;;;;;;;7.43;4.03;;;;;;;8.12;100.00;97967.16;4946664;29;20675;-64
2022/04/18 10:59:18;;;;;;;3.83;3.42;;;;;;;8.21;100.00;97966.56;4940614;29;20204;-66
2022/04/18 11:01:43;;;;;;;4.78;4.38;;;;;;;8.16;100.00;97958.25;4942428;29;20204;-66
2022/04/18 11:04:12;;;;;;;2.30;2.20;;;;;;;8.14;100.00;97954.97;4950689;28;20224;-65
2022/04/18 11:06:38;;;;;;;1.73;1.63;;;;;;;8.32;100.00;97953.78;4951301;29;20201;-67
2022/04/18 11:09:08;;;;;;;8.63;6.50;;;;;;;8.13;100.00;97943.03;4951289;29;20200;-65
2022/04/18 11:11:40;;;;;;;1.67;1.58;;;;;;;8.04;97.10;97958.25;4951096;29;20189;-65
2022/04/18 11:14:15;;;;;;;1.88;1.52;;;;;;;7.91;100.00;97958.22;4951177;29;20296;-65
2022/04/18 11:16:43;;;;;;;1.30;1.20;;;;;;;7.74;100.00;97958.50;4951099;29;20193;-65
2022/04/18 11:19:14;;;;;;;1.20;1.20;;;;;;;7.65;100.00;97956.53;4940408;29;20307;-65
2022/04/18 11:21:59;;;;;;;7.65;5.47;;;;;;;7.71;100.00;97958.69;4941346;29;20590;-65
2022/04/18 11:24:51;;;;;;;2.15;2.05;;;;;;;7.62;100.00;97950.72;4946798;28;20189;-65
2022/04/18 11:27:21;;;;;;;3.42;2.70;;;;;;;7.50;100.00;97951.50;4950875;29;20352;-65
2022/04/18 11:29:52;;;;;;;17.20;9.55;;;;;;;7.58;100.00;97950.09;4950783;29;20659;-65
2022/04/18 11:32:19;;;;;;;18.25;10.55;;;;;;;7.56;100.00;97949.38;4950587;29;20185;-65
2022/04/18 11:34:47;;;;;;;4.03;3.08;;;;;;;7.65;100.00;97951.38;4950844;29;20185;-65
2022/04/18 11:37:27;;;;;;;58.13;26.58;;;;;;;7.76;100.00;97954.06;4950983;29;20235;-65
2022/04/18 11:39:55;;;;;;;14.15;9.45;;;;;;;7.69;100.00;97947.66;4941672;29;20442;-65
2022/04/18 11:42:23;;;;;;;4.60;4.20;;;;;;;7.85;100.00;97955.22;4940125;29;20192;-66
2022/04/18 11:44:51;;;;;;;4.45;3.38;;;;;;;7.67;100.00;97928.91;4945671;29;20244;-65
2022/04/18 11:47:26;;;;;;;4.88;3.30;;;;;;;7.82;100.00;97951.09;4950428;29;20209;-65
2022/04/18 11:49:58;;;;;;;3.83;3.45;;;;;;;7.91;100.00;97953.06;4950608;29;20190;-65
2022/04/18 11:52:29;;;;;;;1.60;1.50;;;;;;;7.98;100.00;97951.75;4950479;29;20205;-65
2022/04/18 11:54:59;;;;;;;1.65;1.55;;;;;;;7.92;100.00;97948.75;4950492;29;20189;-66
2022/04/18 11:57:26;;;;;;;5.25;4.85;;;;;;;7.82;100.00;97948.50;4950394;29;20569;-65
2022/04/18 11:59:52;;;;;;;9.35;7.38;;;;;;;7.78;100.00;97941.94;4946664;29;20228;-65
2022/04/18 12:07:51;;;;;;;13.05;9.30;;;;;;;8.09;100.00;97940.75;4950095;29;20313;-65